createdAt,value
2019-05-01T00:00:58.921Z,15.10
2019-05-01T00:03:47.050Z,15.10
2019-05-01T00:06:16.914Z,15.13
2019-05-01T00:08:45.516Z,14.79
2019-05-01T00:11:14.723Z,14.83
2019-05-01T00:13:43.332Z,14.80
2019-05-01T00:16:11.986Z,15.03
2019-05-01T00:18:41.087Z,15.13
2019-05-01T00:21:09.688Z,14.76
2019-05-01T00:23:38.294Z,15.26
2019-05-01T00:26:07.312Z,15.12
2019-05-01T00:28:36.158Z,15.16
2019-05-01T00:31:05.105Z,14.23
2019-05-01T00:33:33.699Z,14.58
2019-05-01T00:36:02.312Z,14.61
2019-05-01T00:38:30.905Z,14.58
2019-05-01T00:40:59.518Z,14.60
2019-05-01T00:43:28.388Z,14.68
2019-05-01T00:45:57.013Z,14.40
2019-05-01T00:48:25.820Z,14.46
2019-05-01T00:50:54.672Z,14.24
2019-05-01T00:53:23.287Z,14.02
2019-05-01T00:56:15.396Z,14.37
2019-05-01T00:58:56.483Z,14.30
2019-05-01T01:01:53.760Z,13.67
2019-05-01T01:04:22.589Z,13.80
2019-05-01T01:06:51.190Z,13.87
2019-05-01T01:09:20.028Z,13.96
2019-05-01T01:11:48.910Z,14.36
2019-05-01T01:14:17.508Z,14.32
2019-05-01T01:16:46.385Z,14.59
2019-05-01T01:19:15.004Z,14.31
2019-05-01T01:21:43.600Z,14.11
2019-05-01T01:24:12.453Z,14.00
2019-05-01T01:26:41.296Z,13.93
2019-05-01T01:29:10.250Z,14.73
2019-05-01T01:31:38.903Z,13.94
2019-05-01T01:34:07.566Z,13.96
2019-05-01T01:36:36.160Z,14.11
2019-05-01T01:39:05.616Z,14.17
2019-05-01T01:41:34.304Z,14.57
2019-05-01T01:44:15.605Z,14.32
2019-05-01T01:46:44.498Z,14.48
2019-05-01T01:49:13.271Z,14.25
2019-05-01T01:51:42.184Z,14.20
2019-05-01T01:54:11.292Z,13.76
2019-05-01T01:56:40.235Z,13.70
2019-05-01T01:59:08.910Z,14.03
2019-05-01T02:01:51.975Z,14.10
2019-05-01T02:04:39.664Z,13.48
2019-05-01T02:07:08.341Z,14.17
2019-05-01T02:09:36.947Z,13.70
2019-05-01T02:12:05.816Z,13.98
2019-05-01T02:14:34.528Z,14.01
2019-05-01T02:17:03.154Z,13.86
2019-05-01T02:19:32.043Z,14.00
2019-05-01T02:22:00.707Z,14.42
2019-05-01T02:24:29.382Z,14.03
2019-05-01T02:26:59.839Z,13.79
2019-05-01T02:29:33.872Z,13.51
2019-05-01T02:32:02.546Z,13.30
2019-05-01T02:34:32.503Z,13.42
2019-05-01T02:37:02.752Z,13.66
2019-05-01T02:39:31.763Z,13.20
2019-05-01T02:42:01.864Z,13.18
2019-05-01T02:44:38.088Z,13.48
2019-05-01T02:47:08.802Z,13.44
2019-05-01T02:49:53.516Z,13.80
2019-05-01T02:52:24.986Z,13.48
2019-05-01T02:54:54.592Z,13.30
2019-05-01T02:57:25.068Z,13.43
2019-05-01T02:59:54.439Z,13.38
2019-05-01T03:02:24.868Z,13.79
2019-05-01T03:04:53.793Z,13.04
2019-05-01T03:07:22.773Z,13.17
2019-05-01T03:09:52.040Z,13.55
2019-05-01T03:12:22.436Z,13.91
2019-05-01T03:14:52.034Z,13.84
2019-05-01T03:17:38.084Z,13.38
2019-05-01T03:20:29.285Z,13.56
2019-05-01T03:23:23.830Z,13.29
2019-05-01T03:25:52.772Z,13.26
2019-05-01T03:28:22.250Z,13.69
2019-05-01T03:30:51.043Z,14.04
2019-05-01T03:33:19.723Z,13.47
2019-05-01T03:35:48.974Z,13.69
2019-05-01T03:38:17.925Z,13.18
2019-05-01T03:40:46.588Z,13.58
2019-05-01T03:43:15.281Z,13.28
2019-05-01T03:45:44.540Z,12.93
2019-05-01T03:48:13.518Z,12.78
2019-05-01T03:50:46.210Z,13.32
2019-05-01T03:53:12.835Z,12.94
2019-05-01T03:55:41.423Z,13.39
2019-05-01T03:58:10.154Z,13.66
2019-05-01T04:00:55.691Z,13.58
2019-05-01T04:03:30.548Z,13.65
2019-05-01T04:05:59.217Z,13.84
2019-05-01T04:08:28.216Z,13.25
2019-05-01T04:10:57.181Z,13.21
2019-05-01T04:13:26.059Z,13.53
2019-05-01T04:15:55.594Z,13.49
2019-05-01T04:18:24.609Z,13.39
2019-05-01T04:20:53.444Z,13.65
2019-05-01T04:23:22.080Z,13.79
2019-05-01T04:25:50.762Z,13.96
2019-05-01T04:28:44.509Z,14.11
2019-05-01T04:31:31.317Z,14.33
2019-05-01T04:34:02.561Z,14.15
2019-05-01T04:36:36.137Z,14.13
2019-05-01T04:39:07.247Z,14.03
2019-05-01T04:41:36.160Z,14.46
2019-05-01T04:44:05.066Z,14.84
2019-05-01T04:46:34.406Z,14.87
2019-05-01T04:49:03.758Z,15.11
2019-05-01T04:51:32.466Z,15.24
2019-05-01T04:54:01.334Z,15.35
2019-05-01T04:56:33.939Z,15.26
2019-05-01T04:59:02.537Z,15.37
2019-05-01T05:01:52.076Z,14.73
2019-05-01T05:04:20.752Z,14.68
2019-05-01T05:06:49.435Z,14.83
2019-05-01T05:09:19.774Z,15.20
2019-05-01T05:11:53.561Z,15.00
2019-05-01T05:14:26.692Z,15.19
2019-05-01T05:17:02.623Z,15.53
2019-05-01T05:19:31.297Z,16.33
2019-05-01T05:22:00.316Z,16.33
2019-05-01T05:24:28.925Z,16.04
2019-05-01T05:26:58.218Z,16.11
2019-05-01T05:29:27.316Z,16.80
2019-05-01T05:31:57.941Z,17.09
2019-05-01T05:34:27.237Z,17.44
2019-05-01T05:36:58.359Z,17.57
2019-05-01T05:39:35.270Z,17.57
2019-05-01T05:42:05.496Z,17.89
2019-05-01T05:44:35.056Z,17.46
2019-05-01T05:47:03.646Z,17.90
2019-05-01T05:49:32.423Z,17.77
2019-05-01T05:52:08.978Z,17.99
2019-05-01T05:54:43.535Z,18.60
2019-05-01T05:57:23.640Z,19.23
2019-05-01T05:59:55.450Z,19.19
2019-05-01T06:02:33.452Z,18.79
2019-05-01T06:05:15.337Z,18.88
2019-05-01T06:08:05.044Z,18.86
2019-05-01T06:10:47.985Z,19.80
2019-05-01T06:13:25.848Z,20.27
2019-05-01T06:16:01.136Z,20.61
2019-05-01T06:18:52.024Z,22.38
2019-05-01T06:21:34.766Z,23.87
2019-05-01T06:24:22.389Z,23.87
2019-05-01T06:26:51.303Z,23.87
2019-05-01T06:29:20.221Z,25.66
2019-05-01T06:31:49.182Z,27.11
2019-05-01T06:34:17.771Z,28.18
2019-05-01T06:36:49.724Z,28.21
2019-05-01T06:39:17.956Z,29.39
2019-05-01T06:41:46.759Z,30.38
2019-05-01T06:44:27.798Z,28.13
2019-05-01T06:47:19.729Z,27.95
2019-05-01T06:50:14.433Z,26.85
2019-05-01T06:52:43.325Z,28.03
2019-05-01T06:55:12.168Z,28.02
2019-05-01T06:57:43.690Z,30.03
2019-05-01T07:00:16.563Z,30.23
2019-05-01T07:02:47.185Z,31.82
2019-05-01T07:05:16.470Z,32.06
2019-05-01T07:07:48.020Z,32.91
2019-05-01T07:10:29.488Z,31.20
2019-05-01T07:12:47.355Z,29.90
2019-05-01T07:15:16.116Z,30.34
2019-05-01T07:17:47.883Z,28.89
2019-05-01T07:20:47.266Z,29.96
2019-05-01T07:23:18.715Z,29.84
2019-05-01T07:25:47.449Z,28.77
2019-05-01T07:28:16.197Z,28.76
2019-05-01T07:30:49.860Z,27.37
2019-05-01T07:33:18.792Z,27.09
2019-05-01T07:35:47.678Z,25.56
2019-05-01T07:38:16.367Z,26.94
2019-05-01T07:40:45.263Z,26.91
2019-05-01T07:43:39.025Z,28.55
2019-05-01T07:46:30.111Z,29.19
2019-05-01T07:48:59.589Z,28.25
2019-05-01T07:51:28.343Z,30.91
2019-05-01T07:53:58.962Z,31.58
2019-05-01T07:56:29.965Z,31.37
2019-05-01T07:58:59.301Z,31.33
2019-05-01T08:01:42.761Z,33.27
2019-05-01T08:04:13.786Z,32.69
2019-05-01T08:06:42.147Z,32.22
2019-05-01T08:09:14.926Z,32.81
2019-05-01T08:11:44.200Z,31.09
2019-05-01T08:14:11.980Z,29.34
2019-05-01T08:16:42.419Z,31.28
2019-05-01T08:19:20.777Z,32.48
2019-05-01T08:22:06.679Z,31.69
2019-05-01T08:24:35.872Z,29.94
2019-05-01T08:27:04.930Z,29.90
2019-05-01T08:29:52.807Z,31.22
2019-05-01T08:32:40.920Z,31.04
2019-05-01T08:35:11.475Z,30.49
2019-05-01T08:37:40.106Z,30.51
2019-05-01T08:40:09.395Z,30.17
2019-05-01T08:42:42.644Z,31.21
2019-05-01T08:45:22.274Z,32.50
2019-05-01T08:48:00.400Z,32.23
2019-05-01T08:50:29.939Z,31.73
2019-05-01T08:52:59.061Z,30.45
2019-05-01T08:55:27.685Z,32.25
2019-05-01T08:57:56.378Z,32.22
2019-05-01T09:00:25.332Z,31.51
2019-05-01T09:02:53.952Z,30.12
2019-05-01T09:05:28.894Z,30.40
2019-05-01T09:07:56.027Z,29.65
2019-05-01T09:10:23.613Z,30.53
2019-05-01T09:12:52.534Z,30.76
2019-05-01T09:15:21.289Z,31.93
2019-05-01T09:17:50.054Z,31.61
2019-05-01T09:20:18.928Z,30.42
2019-05-01T09:22:47.649Z,31.21
2019-05-01T09:25:19.611Z,32.36
2019-05-01T09:27:59.598Z,32.46
2019-05-01T09:30:34.733Z,33.27
2019-05-01T09:33:03.560Z,32.89
2019-05-01T09:35:32.790Z,34.20
2019-05-01T09:38:01.400Z,34.30
2019-05-01T09:40:30.014Z,32.86
2019-05-01T09:42:59.762Z,31.89
2019-05-01T09:45:29.113Z,32.09
2019-05-01T09:47:58.279Z,32.52
2019-05-01T09:50:30.413Z,32.53
2019-05-01T09:53:08.020Z,31.23
2019-05-01T09:55:42.164Z,28.32
2019-05-01T09:58:10.802Z,27.91
2019-05-01T10:00:39.392Z,26.37
2019-05-01T10:03:08.280Z,26.84
2019-05-01T10:05:38.002Z,27.42
2019-05-01T10:08:07.972Z,27.29
2019-05-01T10:10:37.069Z,26.97
2019-05-01T10:13:05.746Z,26.80
2019-05-01T10:15:34.471Z,26.89
2019-05-01T10:18:03.076Z,26.88
2019-05-01T10:20:31.714Z,27.69
2019-05-01T10:23:00.642Z,28.48
2019-05-01T10:25:29.262Z,28.73
2019-05-01T10:28:07.227Z,27.64
2019-05-01T10:30:55.920Z,27.51
2019-05-01T10:33:29.041Z,28.02
2019-05-01T10:36:19.140Z,28.64
2019-05-01T10:38:44.961Z,28.73
2019-05-01T10:41:14.662Z,28.36
2019-05-01T10:43:43.315Z,26.96
2019-05-01T10:46:11.926Z,28.12
2019-05-01T10:48:40.763Z,27.94
2019-05-01T10:51:09.619Z,27.27
2019-05-01T10:53:38.231Z,27.54
2019-05-01T10:56:07.167Z,27.85
2019-05-01T10:58:35.774Z,29.28
2019-05-01T11:01:13.991Z,28.59
2019-05-01T11:03:43.093Z,30.82
2019-05-01T11:06:11.699Z,31.13
2019-05-01T11:08:40.564Z,31.49
2019-05-01T11:11:09.178Z,31.31
2019-05-01T11:13:37.794Z,32.11
2019-05-01T11:16:06.406Z,33.50
2019-05-01T11:18:35.024Z,33.57
2019-05-01T11:21:03.631Z,32.59
2019-05-01T11:23:32.261Z,32.21
2019-05-01T11:26:01.004Z,30.78
2019-05-01T11:28:29.602Z,28.76
2019-05-01T11:31:01.523Z,28.21
2019-05-01T11:33:55.033Z,27.33
2019-05-01T11:36:42.280Z,27.11
2019-05-01T11:39:40.685Z,27.87
2019-05-01T11:42:09.270Z,28.25
2019-05-01T11:44:38.808Z,28.86
2019-05-01T11:47:07.470Z,28.88
2019-05-01T11:49:36.646Z,28.25
2019-05-01T11:52:05.793Z,27.63
2019-05-01T11:54:34.480Z,27.14
2019-05-01T11:57:03.088Z,26.68
2019-05-01T11:59:32.890Z,26.63
2019-05-01T12:02:02.559Z,26.73
2019-05-01T12:04:31.325Z,26.98
2019-05-01T12:07:00.171Z,28.37
2019-05-01T12:09:29.292Z,27.49
2019-05-01T12:12:00.841Z,25.95
2019-05-01T12:14:29.857Z,25.49
2019-05-01T12:17:19.991Z,24.65
2019-05-01T12:19:48.794Z,25.49
2019-05-01T12:22:17.669Z,25.44
2019-05-01T12:24:46.334Z,25.93
2019-05-01T12:27:14.958Z,26.16
2019-05-01T12:29:43.853Z,25.75
2019-05-01T12:32:12.461Z,26.24
2019-05-01T12:34:41.555Z,26.41
2019-05-01T12:37:31.941Z,25.98
2019-05-01T12:40:00.551Z,26.25
2019-05-01T12:42:29.789Z,26.30
2019-05-01T12:44:58.664Z,25.93
2019-05-01T12:48:01.501Z,27.02
2019-05-01T12:50:30.129Z,26.21
2019-05-01T12:53:07.256Z,26.64
2019-05-01T12:56:05.387Z,27.04
2019-05-01T12:58:35.216Z,27.35
2019-05-01T13:01:05.515Z,25.60
2019-05-01T13:03:34.119Z,26.59
2019-05-01T13:06:02.989Z,25.57
2019-05-01T13:08:31.597Z,25.84
2019-05-01T13:11:00.295Z,25.08
2019-05-01T13:13:28.968Z,25.81
2019-05-01T13:15:57.815Z,25.44
2019-05-01T13:18:26.425Z,25.43
2019-05-01T13:20:55.084Z,25.59
2019-05-01T13:23:24.043Z,25.97
2019-05-01T13:25:54.526Z,24.51
2019-05-01T13:28:42.235Z,24.34
2019-05-01T13:31:28.804Z,24.43
2019-05-01T13:33:57.416Z,25.78
2019-05-01T13:36:26.095Z,26.51
2019-05-01T13:38:54.704Z,25.79
2019-05-01T13:41:23.304Z,25.83
2019-05-01T13:43:52.154Z,26.99
2019-05-01T13:46:20.996Z,26.11
2019-05-01T13:48:49.621Z,25.18
2019-05-01T13:51:18.715Z,26.18
2019-05-01T13:53:47.330Z,26.29
2019-05-01T13:56:16.069Z,26.47
2019-05-01T13:58:44.673Z,26.07
2019-05-01T14:01:13.268Z,25.89
2019-05-01T14:03:41.884Z,24.37
2019-05-01T14:06:10.517Z,23.67
2019-05-01T14:08:39.672Z,25.41
2019-05-01T14:11:08.314Z,25.01
2019-05-01T14:13:37.170Z,25.25
2019-05-01T14:16:05.846Z,25.52
2019-05-01T14:18:34.483Z,26.15
2019-05-01T14:21:18.422Z,26.18
2019-05-01T14:24:15.380Z,26.27
2019-05-01T14:26:44.234Z,26.32
2019-05-01T14:29:12.838Z,24.95
2019-05-01T14:31:41.504Z,24.55
2019-05-01T14:34:10.102Z,24.98
2019-05-01T14:36:38.954Z,24.94
2019-05-01T14:39:07.736Z,25.25
2019-05-01T14:41:36.597Z,23.95
2019-05-01T14:44:05.939Z,25.21
2019-05-01T14:46:35.229Z,25.15
2019-05-01T14:49:03.975Z,24.00
2019-05-01T14:51:32.833Z,24.79
2019-05-01T14:54:01.938Z,24.58
2019-05-01T14:56:30.558Z,25.79
2019-05-01T14:58:59.482Z,25.64
2019-05-01T15:01:28.070Z,25.18
2019-05-01T15:03:57.205Z,25.13
2019-05-01T15:06:25.972Z,25.25
2019-05-01T15:08:54.573Z,25.53
2019-05-01T15:11:23.192Z,24.42
2019-05-01T15:14:13.922Z,25.55
2019-05-01T15:16:56.638Z,25.51
2019-05-01T15:19:27.309Z,24.55
2019-05-01T15:21:55.928Z,24.82
2019-05-01T15:24:24.612Z,24.54
2019-05-01T15:26:53.204Z,24.85
2019-05-01T15:29:22.044Z,24.90
2019-05-01T15:31:50.983Z,25.48
2019-05-01T15:34:24.064Z,25.42
2019-05-01T15:36:52.789Z,25.99
2019-05-01T15:39:35.681Z,25.44
2019-05-01T15:42:26.369Z,25.35
2019-05-01T15:44:55.052Z,25.12
2019-05-01T15:47:23.688Z,24.46
2019-05-01T15:49:52.545Z,23.80
2019-05-01T15:52:21.205Z,24.92
2019-05-01T15:54:50.110Z,24.80
2019-05-01T15:57:18.770Z,24.61
2019-05-01T15:59:47.651Z,24.37
2019-05-01T16:02:16.270Z,25.03
2019-05-01T16:04:44.933Z,25.22
2019-05-01T16:07:13.641Z,24.52
2019-05-01T16:09:42.251Z,24.03
2019-05-01T16:12:19.706Z,24.06
2019-05-01T16:14:49.777Z,23.83
2019-05-01T16:17:18.498Z,24.24
2019-05-01T16:19:47.131Z,23.03
2019-05-01T16:22:15.824Z,23.92
2019-05-01T16:24:44.449Z,23.74
2019-05-01T16:27:13.040Z,23.42
2019-05-01T16:29:41.750Z,24.02
2019-05-01T16:32:10.434Z,22.98
2019-05-01T16:34:39.300Z,23.55
2019-05-01T16:37:08.176Z,24.42
2019-05-01T16:39:55.817Z,22.05
2019-05-01T16:42:42.877Z,22.87
2019-05-01T16:45:12.439Z,23.10
2019-05-01T16:47:41.065Z,23.25
2019-05-01T16:50:10.406Z,22.88
2019-05-01T16:52:39.487Z,22.83
2019-05-01T16:55:08.641Z,22.66
2019-05-01T16:57:37.270Z,23.18
2019-05-01T17:00:08.188Z,23.26
2019-05-01T17:03:11.254Z,22.65
2019-05-01T17:05:52.139Z,22.29
2019-05-01T17:08:38.686Z,23.26
2019-05-01T17:11:08.192Z,22.73
2019-05-01T17:13:37.272Z,22.33
2019-05-01T17:16:06.134Z,22.18
2019-05-01T17:18:35.105Z,22.92
2019-05-01T17:21:03.994Z,23.18
2019-05-01T17:23:32.811Z,22.22
2019-05-01T17:26:01.949Z,22.48
2019-05-01T17:28:32.767Z,22.95
2019-05-01T17:31:01.368Z,22.95
2019-05-01T17:33:30.345Z,22.82
2019-05-01T17:35:59.038Z,22.71
2019-05-01T17:38:28.153Z,22.71
2019-05-01T17:40:56.891Z,21.65
2019-05-01T17:43:25.509Z,22.69
2019-05-01T17:45:54.335Z,22.23
2019-05-01T17:48:23.325Z,22.29
2019-05-01T17:50:55.045Z,22.64
2019-05-01T17:53:22.820Z,21.25
2019-05-01T17:55:51.578Z,21.88
2019-05-01T17:58:20.440Z,21.51
2019-05-01T18:01:27.806Z,22.06
2019-05-01T18:04:16.032Z,21.90
2019-05-01T18:06:47.924Z,22.26
2019-05-01T18:09:17.525Z,22.20
2019-05-01T18:11:47.237Z,22.11
2019-05-01T18:14:17.099Z,21.98
2019-05-01T18:16:46.112Z,21.87
2019-05-01T18:19:14.983Z,22.18
2019-05-01T18:21:46.611Z,21.80
2019-05-01T18:24:46.525Z,22.18
2019-05-01T18:27:40.532Z,21.89
2019-05-01T18:30:15.752Z,21.70
2019-05-01T18:32:47.347Z,20.96
2019-05-01T18:35:14.366Z,21.20
2019-05-01T18:38:11.444Z,21.05
2019-05-01T18:40:43.068Z,21.57
2019-05-01T18:43:11.956Z,21.89
2019-05-01T18:45:54.767Z,21.49
2019-05-01T18:48:23.809Z,21.62
2019-05-01T18:50:54.613Z,21.58
2019-05-01T18:53:23.436Z,21.70
2019-05-01T18:55:52.292Z,20.97
2019-05-01T18:58:21.050Z,20.36
2019-05-01T19:00:50.209Z,19.92
2019-05-01T19:03:18.807Z,19.56
2019-05-01T19:05:48.237Z,19.83
2019-05-01T19:08:16.967Z,19.85
2019-05-01T19:10:45.801Z,19.69
2019-05-01T19:13:14.893Z,19.87
2019-05-01T19:15:43.743Z,19.89
2019-05-01T19:18:12.356Z,19.55
2019-05-01T19:20:40.994Z,19.74
2019-05-01T19:23:09.875Z,19.76
2019-05-01T19:25:38.466Z,19.37
2019-05-01T19:28:07.848Z,19.59
2019-05-01T19:30:36.874Z,19.19
2019-05-01T19:33:05.784Z,19.07
2019-05-01T19:35:34.618Z,18.60
2019-05-01T19:38:03.235Z,18.56
2019-05-01T19:40:32.764Z,18.85
2019-05-01T19:43:01.592Z,19.17
2019-05-01T19:45:30.238Z,19.05
2019-05-01T19:47:59.478Z,18.70
2019-05-01T19:50:28.062Z,18.82
2019-05-01T19:52:56.797Z,19.08
2019-05-01T19:55:25.661Z,19.01
2019-05-01T19:57:54.822Z,18.91
2019-05-01T20:00:55.619Z,18.42
2019-05-01T20:03:24.527Z,18.81
2019-05-01T20:05:53.384Z,18.79
2019-05-01T20:08:22.309Z,18.58
2019-05-01T20:10:51.206Z,18.70
2019-05-01T20:13:19.804Z,18.56
2019-05-01T20:15:48.702Z,18.60
2019-05-01T20:18:17.317Z,17.56
2019-05-01T20:20:46.215Z,17.78
2019-05-01T20:23:14.887Z,18.17
2019-05-01T20:25:43.722Z,18.55
2019-05-01T20:28:12.409Z,18.33
2019-05-01T20:30:40.997Z,18.55
2019-05-01T20:33:09.626Z,18.75
2019-05-01T20:35:38.457Z,18.72
2019-05-01T20:38:07.320Z,18.10
2019-05-01T20:40:36.228Z,17.93
2019-05-01T20:43:05.966Z,18.01
2019-05-01T20:45:36.295Z,18.40
2019-05-01T20:48:05.086Z,18.33
2019-05-01T20:50:33.682Z,18.47
2019-05-01T20:53:02.289Z,18.22
2019-05-01T20:55:30.873Z,19.05
2019-05-01T20:58:16.945Z,18.96
2019-05-01T21:00:48.088Z,18.88
2019-05-01T21:03:18.207Z,19.73
2019-05-01T21:06:02.964Z,19.94
2019-05-01T21:08:39.767Z,19.83
2019-05-01T21:11:12.978Z,19.91
2019-05-01T21:13:41.838Z,19.39
2019-05-01T21:16:10.711Z,19.87
2019-05-01T21:18:39.311Z,19.46
2019-05-01T21:21:08.202Z,19.61
2019-05-01T21:23:36.808Z,19.72
2019-05-01T21:26:05.417Z,20.08
2019-05-01T21:28:34.400Z,19.72
2019-05-01T21:31:03.955Z,19.70
2019-05-01T21:33:34.000Z,19.84
2019-05-01T21:36:04.815Z,20.17
2019-05-01T21:38:33.468Z,18.48
2019-05-01T21:41:02.838Z,19.33
2019-05-01T21:43:33.266Z,19.43
2019-05-01T21:46:04.056Z,19.48
2019-05-01T21:48:33.426Z,19.74
2019-05-01T21:51:05.474Z,19.51
2019-05-01T21:53:32.975Z,19.96
2019-05-01T21:56:02.239Z,19.13
2019-05-01T21:58:35.322Z,20.12
2019-05-01T22:01:02.723Z,20.09
2019-05-01T22:03:31.448Z,19.00
2019-05-01T22:06:00.047Z,19.61
2019-05-01T22:08:28.734Z,19.17
2019-05-01T22:11:01.690Z,19.25
2019-05-01T22:13:28.105Z,18.92
2019-05-01T22:16:02.371Z,19.54
2019-05-01T22:18:42.922Z,18.90
2019-05-01T22:21:19.913Z,19.01
2019-05-01T22:24:16.416Z,19.32
2019-05-01T22:26:51.445Z,18.24
2019-05-01T22:29:21.992Z,19.07
2019-05-01T22:31:58.822Z,19.38
2019-05-01T22:34:43.727Z,19.17
2019-05-01T22:37:12.661Z,19.23
2019-05-01T22:39:43.323Z,19.58
2019-05-01T22:42:11.984Z,18.36
2019-05-01T22:44:40.600Z,18.80
2019-05-01T22:47:10.269Z,18.27
2019-05-01T22:49:39.780Z,18.43
2019-05-01T22:52:08.375Z,19.07
2019-05-01T22:54:36.976Z,18.95
2019-05-01T22:57:05.641Z,18.22
2019-05-01T22:59:34.717Z,17.90
2019-05-01T23:02:10.653Z,18.62
2019-05-01T23:04:39.256Z,19.08
2019-05-01T23:07:11.664Z,18.98
2019-05-01T23:09:38.364Z,17.88
2019-05-01T23:12:07.035Z,18.62
2019-05-01T23:14:35.626Z,16.89
2019-05-01T23:17:21.966Z,18.20
2019-05-01T23:19:50.647Z,17.24
2019-05-01T23:22:19.845Z,18.07
2019-05-01T23:24:48.457Z,18.43
2019-05-01T23:27:17.049Z,18.31
2019-05-01T23:29:46.140Z,17.86
2019-05-01T23:32:14.742Z,18.64
2019-05-01T23:34:43.450Z,18.90
2019-05-01T23:37:12.045Z,18.24
2019-05-01T23:39:42.228Z,18.55
2019-05-01T23:42:10.785Z,18.63
2019-05-01T23:44:42.945Z,17.82
2019-05-01T23:47:09.711Z,17.99
2019-05-01T23:49:38.455Z,17.82
2019-05-01T23:52:07.046Z,18.29
2019-05-01T23:54:35.729Z,18.26
2019-05-01T23:57:04.404Z,17.41
2019-05-01T23:59:32.996Z,17.51
